Impacts METAR Board INFO
IDs:

KMSP - Minneapolis-St Paul, MN, US

Updated at: 1520 UTC 18 Jan 2018
Potential Impact None Slight Moderate High
Time18/03Z 18/04Z 18/05Z 18/06Z 18/07Z 18/08Z 18/09Z 18/10Z 18/11Z 18/12Z 18/13Z 18/14Z 18/15Z
VIS10 10 10 10 10 10 10 10 10 10 10 10 10
CIG-- -- -- -- -- -- -- 230 200 180 -- -- --
CoverCLRCLRCLRCLRCLRCLRSCTBKNOVCBKNFEWFEWFEW
FltCatVFRVFRVFRVFRVFRVFRVFRVFRVFRVFRVFRVFRVFR
WX--------------------------
WDir240240240230240220220220210250220210240
WSpd8 7 7 8 5 6 4 7 5 4 7 6 7
WGst-- -- -- -- -- -- -- -- -- -- -- -- --
Raw hourly METARs
KMSP 180253Z 24008KT 10SM CLR M03/M08 A3006 RMK AO2 SLP194 T10331083 58010
KMSP 180353Z 24007KT 10SM CLR M03/M08 A3004 RMK AO2 SLP189 T10331083
KMSP 180453Z 24007KT 10SM CLR M04/M08 A3004 RMK AO2 SLP187 T10391083
KMSP 180553Z 23008KT 10SM CLR M04/M09 A3003 RMK AO2 SLP184 4/004 T10441089 11028 21044 410281183 56009
KMSP 180653Z 24005KT 10SM CLR M05/M09 A3003 RMK AO2 SLP182 T10501089
KMSP 180753Z 22006KT 10SM CLR M06/M09 A3001 RMK AO2 SLP175 T10561089
KMSP 180853Z 22004KT 10SM SCT230 M06/M08 A2999 RMK AO2 SLP170 T10561083 58013
KMSP 180953Z 22007KT 10SM BKN230 M05/M08 A2996 RMK AO2 SLP159 T10501078
KMSP 181053Z 21005KT 10SM OVC200 M04/M08 A2991 RMK AO2 SLP139 T10441078
KMSP 181153Z 25004KT 10SM BKN180 M03/M07 A2989 RMK AO2 SLP135 4/004 T10331072 11033 21061 56033
KMSP 181253Z 22007KT 10SM FEW180 M04/M08 A2990 RMK AO2 SLP137 T10441078
KMSP 181353Z 21006KT 10SM FEW180 M05/M08 A2989 RMK AO2 SLP134 T10501078
KMSP 181453Z 24007KT 10SM FEW180 M04/M08 A2988 RMK AO2 SLP131 T10441078 58005